sensor_id;sensor_type;location;lat;lon;timestamp;P1;durP1;ratioP1;P2;durP2;ratioP2
32186;SDS011;18686;53.084;8.872;2023-03-19T00:00:34;10.80;;;9.73;;
32186;SDS011;18686;53.084;8.872;2023-03-19T00:03:03;11.73;;;10.55;;
32186;SDS011;18686;53.084;8.872;2023-03-19T00:05:31;10.95;;;9.85;;
32186;SDS011;18686;53.084;8.872;2023-03-19T00:08:00;12.02;;;10.93;;
32186;SDS011;18686;53.084;8.872;2023-03-19T00:10:28;12.25;;;10.98;;
32186;SDS011;18686;53.084;8.872;2023-03-19T00:12:57;12.50;;;11.25;;
32186;SDS011;18686;53.084;8.872;2023-03-19T00:15:25;13.90;;;12.40;;
32186;SDS011;18686;53.084;8.872;2023-03-19T00:17:55;12.90;;;11.48;;
32186;SDS011;18686;53.084;8.872;2023-03-19T00:20:23;13.05;;;11.70;;
32186;SDS011;18686;53.084;8.872;2023-03-19T00:22:52;14.75;;;12.60;;
32186;SDS011;18686;53.084;8.872;2023-03-19T00:25:20;13.65;;;12.27;;
32186;SDS011;18686;53.084;8.872;2023-03-19T00:27:49;14.98;;;13.57;;
32186;SDS011;18686;53.084;8.872;2023-03-19T00:30:18;15.48;;;13.88;;
32186;SDS011;18686;53.084;8.872;2023-03-19T00:32:47;15.60;;;14.05;;
32186;SDS011;18686;53.084;8.872;2023-03-19T00:35:17;15.52;;;13.32;;
32186;SDS011;18686;53.084;8.872;2023-03-19T00:37:46;15.70;;;14.18;;
32186;SDS011;18686;53.084;8.872;2023-03-19T00:40:14;14.18;;;12.60;;
32186;SDS011;18686;53.084;8.872;2023-03-19T00:42:43;16.40;;;14.60;;
32186;SDS011;18686;53.084;8.872;2023-03-19T00:45:11;15.70;;;13.88;;
32186;SDS011;18686;53.084;8.872;2023-03-19T00:47:39;15.38;;;13.90;;
32186;SDS011;18686;53.084;8.872;2023-03-19T00:50:11;16.92;;;15.10;;
32186;SDS011;18686;53.084;8.872;2023-03-19T00:52:42;15.07;;;13.57;;
32186;SDS011;18686;53.084;8.872;2023-03-19T00:55:10;17.55;;;15.27;;
32186;SDS011;18686;53.084;8.872;2023-03-19T00:57:38;15.50;;;13.88;;
32186;SDS011;18686;53.084;8.872;2023-03-19T01:00:07;16.27;;;14.68;;
32186;SDS011;18686;53.084;8.872;2023-03-19T01:02:36;15.90;;;14.40;;
32186;SDS011;18686;53.084;8.872;2023-03-19T01:05:05;15.00;;;13.57;;
32186;SDS011;18686;53.084;8.872;2023-03-19T01:07:35;17.27;;;14.65;;
32186;SDS011;18686;53.084;8.872;2023-03-19T01:10:05;17.30;;;15.35;;
32186;SDS011;18686;53.084;8.872;2023-03-19T01:12:34;17.92;;;16.02;;
32186;SDS011;18686;53.084;8.872;2023-03-19T01:15:03;17.98;;;16.17;;
32186;SDS011;18686;53.084;8.872;2023-03-19T01:17:32;15.75;;;14.15;;
32186;SDS011;18686;53.084;8.872;2023-03-19T01:20:01;18.10;;;15.10;;
32186;SDS011;18686;53.084;8.872;2023-03-19T01:22:29;16.60;;;14.93;;
32186;SDS011;18686;53.084;8.872;2023-03-19T01:25:01;16.13;;;14.48;;
32186;SDS011;18686;53.084;8.872;2023-03-19T01:27:30;17.00;;;15.30;;
32186;SDS011;18686;53.084;8.872;2023-03-19T01:29:59;16.48;;;14.82;;
32186;SDS011;18686;53.084;8.872;2023-03-19T01:32:47;17.25;;;14.95;;
32186;SDS011;18686;53.084;8.872;2023-03-19T01:35:33;16.42;;;14.60;;
32186;SDS011;18686;53.084;8.872;2023-03-19T01:38:02;17.35;;;15.65;;
32186;SDS011;18686;53.084;8.872;2023-03-19T01:40:31;16.95;;;15.20;;
32186;SDS011;18686;53.084;8.872;2023-03-19T01:43:12;16.38;;;14.68;;
32186;SDS011;18686;53.084;8.872;2023-03-19T01:46:06;17.08;;;15.27;;
32186;SDS011;18686;53.084;8.872;2023-03-19T01:48:59;17.02;;;15.23;;
32186;SDS011;18686;53.084;8.872;2023-03-19T01:51:33;17.85;;;15.93;;
32186;SDS011;18686;53.084;8.872;2023-03-19T01:54:22;18.30;;;15.60;;
32186;SDS011;18686;53.084;8.872;2023-03-19T01:57:04;18.58;;;15.70;;
32186;SDS011;18686;53.084;8.872;2023-03-19T02:00:03;17.48;;;15.70;;
32186;SDS011;18686;53.084;8.872;2023-03-19T02:02:43;16.95;;;15.25;;
32186;SDS011;18686;53.084;8.872;2023-03-19T02:05:33;16.17;;;14.48;;
32186;SDS011;18686;53.084;8.872;2023-03-19T02:08:06;17.65;;;14.40;;
32186;SDS011;18686;53.084;8.872;2023-03-19T02:10:38;15.25;;;13.65;;
32186;SDS011;18686;53.084;8.872;2023-03-19T02:13:07;16.00;;;14.00;;
32186;SDS011;18686;53.084;8.872;2023-03-19T02:15:38;14.48;;;12.98;;
32186;SDS011;18686;53.084;8.872;2023-03-19T02:18:07;14.70;;;13.27;;
32186;SDS011;18686;53.084;8.872;2023-03-19T02:20:39;14.13;;;12.80;;
32186;SDS011;18686;53.084;8.872;2023-03-19T02:23:16;14.85;;;13.18;;
32186;SDS011;18686;53.084;8.872;2023-03-19T02:25:59;15.48;;;13.77;;
32186;SDS011;18686;53.084;8.872;2023-03-19T02:28:30;15.43;;;13.93;;
32186;SDS011;18686;53.084;8.872;2023-03-19T02:31:00;16.58;;;14.32;;
32186;SDS011;18686;53.084;8.872;2023-03-19T02:33:28;15.25;;;13.65;;
32186;SDS011;18686;53.084;8.872;2023-03-19T02:35:58;16.48;;;13.50;;
32186;SDS011;18686;53.084;8.872;2023-03-19T02:38:29;14.95;;;13.48;;
32186;SDS011;18686;53.084;8.872;2023-03-19T02:41:02;13.27;;;11.93;;
32186;SDS011;18686;53.084;8.872;2023-03-19T02:43:32;13.95;;;12.40;;
32186;SDS011;18686;53.084;8.872;2023-03-19T02:46:03;13.55;;;12.15;;
32186;SDS011;18686;53.084;8.872;2023-03-19T02:48:33;12.90;;;11.70;;
32186;SDS011;18686;53.084;8.872;2023-03-19T02:51:02;12.25;;;10.98;;
32186;SDS011;18686;53.084;8.872;2023-03-19T02:53:31;12.55;;;11.25;;
32186;SDS011;18686;53.084;8.872;2023-03-19T02:56:02;13.43;;;11.75;;
32186;SDS011;18686;53.084;8.872;2023-03-19T02:58:31;12.27;;;11.07;;
32186;SDS011;18686;53.084;8.872;2023-03-19T03:00:59;12.05;;;10.85;;
32186;SDS011;18686;53.084;8.872;2023-03-19T03:03:27;12.65;;;10.43;;
32186;SDS011;18686;53.084;8.872;2023-03-19T03:05:56;11.68;;;10.48;;
32186;SDS011;18686;53.084;8.872;2023-03-19T03:08:24;11.00;;;9.90;;
32186;SDS011;18686;53.084;8.872;2023-03-19T03:10:53;14.30;;;11.20;;
32186;SDS011;18686;53.084;8.872;2023-03-19T03:13:24;11.98;;;10.48;;
32186;SDS011;18686;53.084;8.872;2023-03-19T03:15:53;12.18;;;9.80;;
32186;SDS011;18686;53.084;8.872;2023-03-19T03:18:22;11.88;;;10.68;;
32186;SDS011;18686;53.084;8.872;2023-03-19T03:20:50;11.30;;;10.18;;
32186;SDS011;18686;53.084;8.872;2023-03-19T03:23:19;11.82;;;10.52;;
32186;SDS011;18686;53.084;8.872;2023-03-19T03:25:47;12.40;;;10.80;;
32186;SDS011;18686;53.084;8.872;2023-03-19T03:28:16;18.38;;;11.60;;
32186;SDS011;18686;53.084;8.872;2023-03-19T03:30:46;12.52;;;10.63;;
32186;SDS011;18686;53.084;8.872;2023-03-19T03:33:15;12.40;;;11.15;;
32186;SDS011;18686;53.084;8.872;2023-03-19T03:35:44;13.35;;;11.43;;
32186;SDS011;18686;53.084;8.872;2023-03-19T03:38:12;13.68;;;11.68;;
32186;SDS011;18686;53.084;8.872;2023-03-19T03:40:41;12.32;;;11.13;;
32186;SDS011;18686;53.084;8.872;2023-03-19T03:43:09;12.55;;;11.10;;
32186;SDS011;18686;53.084;8.872;2023-03-19T03:45:38;12.05;;;10.85;;
32186;SDS011;18686;53.084;8.872;2023-03-19T03:48:08;11.40;;;10.25;;
32186;SDS011;18686;53.084;8.872;2023-03-19T03:50:37;13.00;;;10.80;;
32186;SDS011;18686;53.084;8.872;2023-03-19T03:53:08;13.80;;;12.13;;
32186;SDS011;18686;53.084;8.872;2023-03-19T03:55:37;12.75;;;11.30;;
32186;SDS011;18686;53.084;8.872;2023-03-19T03:58:06;14.65;;;12.80;;
32186;SDS011;18686;53.084;8.872;2023-03-19T04:00:34;13.68;;;12.13;;
32186;SDS011;18686;53.084;8.872;2023-03-19T04:03:10;13.38;;;11.93;;
32186;SDS011;18686;53.084;8.872;2023-03-19T04:05:56;17.27;;;12.95;;
32186;SDS011;18686;53.084;8.872;2023-03-19T04:08:25;13.77;;;12.38;;
32186;SDS011;18686;53.084;8.872;2023-03-19T04:10:53;16.23;;;13.50;;
32186;SDS011;18686;53.084;8.872;2023-03-19T04:13:21;14.02;;;12.57;;
32186;SDS011;18686;53.084;8.872;2023-03-19T04:15:50;14.57;;;12.93;;
32186;SDS011;18686;53.084;8.872;2023-03-19T04:18:22;13.75;;;12.32;;
32186;SDS011;18686;53.084;8.872;2023-03-19T04:20:50;15.02;;;12.25;;
32186;SDS011;18686;53.084;8.872;2023-03-19T04:23:19;15.65;;;13.27;;
32186;SDS011;18686;53.084;8.872;2023-03-19T04:25:47;13.30;;;11.93;;
32186;SDS011;18686;53.084;8.872;2023-03-19T04:28:16;15.27;;;12.55;;
32186;SDS011;18686;53.084;8.872;2023-03-19T04:30:44;14.57;;;13.15;;
32186;SDS011;18686;53.084;8.872;2023-03-19T04:33:13;13.43;;;12.00;;
32186;SDS011;18686;53.084;8.872;2023-03-19T04:35:43;14.10;;;12.60;;
32186;SDS011;18686;53.084;8.872;2023-03-19T04:38:11;14.82;;;12.40;;
32186;SDS011;18686;53.084;8.872;2023-03-19T04:40:40;14.13;;;12.63;;
32186;SDS011;18686;53.084;8.872;2023-03-19T04:43:08;13.48;;;12.02;;
32186;SDS011;18686;53.084;8.872;2023-03-19T04:45:37;12.88;;;11.57;;
32186;SDS011;18686;53.084;8.872;2023-03-19T04:48:06;14.82;;;12.00;;
32186;SDS011;18686;53.084;8.872;2023-03-19T04:50:35;13.98;;;12.10;;
32186;SDS011;18686;53.084;8.872;2023-03-19T04:53:05;12.13;;;10.93;;
32186;SDS011;18686;53.084;8.872;2023-03-19T04:55:35;11.77;;;9.88;;
32186;SDS011;18686;53.084;8.872;2023-03-19T04:58:07;13.65;;;12.30;;
32186;SDS011;18686;53.084;8.872;2023-03-19T05:00:36;12.85;;;11.52;;
32186;SDS011;18686;53.084;8.872;2023-03-19T05:03:05;13.68;;;11.63;;
32186;SDS011;18686;53.084;8.872;2023-03-19T05:05:34;12.35;;;11.15;;
32186;SDS011;18686;53.084;8.872;2023-03-19T05:08:07;12.95;;;11.35;;
32186;SDS011;18686;53.084;8.872;2023-03-19T05:10:36;12.48;;;11.25;;
32186;SDS011;18686;53.084;8.872;2023-03-19T05:13:05;12.93;;;11.55;;
32186;SDS011;18686;53.084;8.872;2023-03-19T05:18:10;12.35;;;10.82;;
32186;SDS011;18686;53.084;8.872;2023-03-19T05:20:42;14.02;;;12.57;;
32186;SDS011;18686;53.084;8.872;2023-03-19T05:23:18;12.20;;;10.88;;
32186;SDS011;18686;53.084;8.872;2023-03-19T05:25:58;12.50;;;11.30;;
32186;SDS011;18686;53.084;8.872;2023-03-19T05:28:48;13.07;;;10.80;;
32186;SDS011;18686;53.084;8.872;2023-03-19T05:31:20;12.75;;;10.63;;
32186;SDS011;18686;53.084;8.872;2023-03-19T05:33:51;13.05;;;11.65;;
32186;SDS011;18686;53.084;8.872;2023-03-19T05:36:20;15.00;;;11.52;;
32186;SDS011;18686;53.084;8.872;2023-03-19T05:39:01;11.82;;;10.63;;
32186;SDS011;18686;53.084;8.872;2023-03-19T05:41:33;11.68;;;10.48;;
32186;SDS011;18686;53.084;8.872;2023-03-19T05:44:04;12.98;;;11.68;;
32186;SDS011;18686;53.084;8.872;2023-03-19T05:46:53;13.25;;;11.80;;
32186;SDS011;18686;53.084;8.872;2023-03-19T05:49:23;12.32;;;11.13;;
32186;SDS011;18686;53.084;8.872;2023-03-19T05:51:52;12.85;;;11.55;;
32186;SDS011;18686;53.084;8.872;2023-03-19T05:54:22;12.40;;;11.13;;
32186;SDS011;18686;53.084;8.872;2023-03-19T05:57:02;11.82;;;10.73;;
32186;SDS011;18686;53.084;8.872;2023-03-19T05:59:43;12.30;;;10.73;;
32186;SDS011;18686;53.084;8.872;2023-03-19T06:02:25;10.68;;;9.57;;
32186;SDS011;18686;53.084;8.872;2023-03-19T06:05:08;11.60;;;10.50;;
32186;SDS011;18686;53.084;8.872;2023-03-19T06:07:37;12.63;;;10.40;;
32186;SDS011;18686;53.084;8.872;2023-03-19T06:10:12;11.55;;;10.35;;
32186;SDS011;18686;53.084;8.872;2023-03-19T06:12:40;13.93;;;11.23;;
32186;SDS011;18686;53.084;8.872;2023-03-19T06:15:20;11.23;;;9.95;;
32186;SDS011;18686;53.084;8.872;2023-03-19T06:18:11;12.25;;;10.50;;
32186;SDS011;18686;53.084;8.872;2023-03-19T06:20:40;12.85;;;10.20;;
32186;SDS011;18686;53.084;8.872;2023-03-19T06:23:08;11.25;;;10.05;;
32186;SDS011;18686;53.084;8.872;2023-03-19T06:25:38;13.35;;;11.38;;
32186;SDS011;18686;53.084;8.872;2023-03-19T06:28:06;11.45;;;10.23;;
32186;SDS011;18686;53.084;8.872;2023-03-19T06:30:38;11.93;;;10.60;;
32186;SDS011;18686;53.084;8.872;2023-03-19T06:33:26;10.55;;;9.45;;
32186;SDS011;18686;53.084;8.872;2023-03-19T06:35:58;10.88;;;9.77;;
32186;SDS011;18686;53.084;8.872;2023-03-19T06:38:29;10.05;;;9.05;;
32186;SDS011;18686;53.084;8.872;2023-03-19T06:40:58;10.98;;;9.20;;
32186;SDS011;18686;53.084;8.872;2023-03-19T06:43:27;10.57;;;9.13;;
32186;SDS011;18686;53.084;8.872;2023-03-19T06:45:55;9.30;;;8.32;;
32186;SDS011;18686;53.084;8.872;2023-03-19T06:48:23;9.45;;;8.55;;
32186;SDS011;18686;53.084;8.872;2023-03-19T06:50:52;9.32;;;8.30;;
32186;SDS011;18686;53.084;8.872;2023-03-19T06:53:20;9.00;;;7.85;;
32186;SDS011;18686;53.084;8.872;2023-03-19T06:55:48;8.93;;;7.60;;
32186;SDS011;18686;53.084;8.872;2023-03-19T06:58:18;7.55;;;6.75;;
32186;SDS011;18686;53.084;8.872;2023-03-19T07:00:46;8.30;;;7.07;;
32186;SDS011;18686;53.084;8.872;2023-03-19T07:03:15;10.15;;;7.63;;
32186;SDS011;18686;53.084;8.872;2023-03-19T07:05:43;7.47;;;6.43;;
32186;SDS011;18686;53.084;8.872;2023-03-19T07:08:11;9.70;;;6.93;;
32186;SDS011;18686;53.084;8.872;2023-03-19T07:10:39;9.73;;;7.07;;
32186;SDS011;18686;53.084;8.872;2023-03-19T07:13:08;8.52;;;6.25;;
32186;SDS011;18686;53.084;8.872;2023-03-19T07:15:38;7.50;;;5.93;;
32186;SDS011;18686;53.084;8.872;2023-03-19T07:18:06;8.20;;;6.90;;
32186;SDS011;18686;53.084;8.872;2023-03-19T07:20:34;8.93;;;6.97;;
32186;SDS011;18686;53.084;8.872;2023-03-19T07:23:02;7.75;;;6.35;;
32186;SDS011;18686;53.084;8.872;2023-03-19T07:25:30;9.52;;;6.40;;
32186;SDS011;18686;53.084;8.872;2023-03-19T07:27:59;9.23;;;6.15;;
32186;SDS011;18686;53.084;8.872;2023-03-19T07:30:27;10.15;;;6.03;;
32186;SDS011;18686;53.084;8.872;2023-03-19T07:32:57;7.38;;;5.70;;
32186;SDS011;18686;53.084;8.872;2023-03-19T07:35:25;9.90;;;5.25;;
32186;SDS011;18686;53.084;8.872;2023-03-19T07:37:53;7.60;;;5.28;;
32186;SDS011;18686;53.084;8.872;2023-03-19T07:40:21;9.80;;;5.65;;
32186;SDS011;18686;53.084;8.872;2023-03-19T07:42:50;7.78;;;6.15;;
32186;SDS011;18686;53.084;8.872;2023-03-19T07:45:18;9.20;;;6.70;;
32186;SDS011;18686;53.084;8.872;2023-03-19T07:47:48;6.85;;;6.15;;
32186;SDS011;18686;53.084;8.872;2023-03-19T07:50:18;9.13;;;6.15;;
32186;SDS011;18686;53.084;8.872;2023-03-19T07:52:47;13.05;;;9.48;;
32186;SDS011;18686;53.084;8.872;2023-03-19T07:55:16;7.93;;;6.30;;
32186;SDS011;18686;53.084;8.872;2023-03-19T07:57:45;9.23;;;6.35;;
32186;SDS011;18686;53.084;8.872;2023-03-19T08:00:14;9.70;;;5.90;;
32186;SDS011;18686;53.084;8.872;2023-03-19T08:02:43;9.48;;;6.15;;
32186;SDS011;18686;53.084;8.872;2023-03-19T08:05:12;9.73;;;5.70;;
32186;SDS011;18686;53.084;8.872;2023-03-19T08:07:43;8.60;;;5.65;;
32186;SDS011;18686;53.084;8.872;2023-03-19T08:10:12;8.32;;;5.95;;
32186;SDS011;18686;53.084;8.872;2023-03-19T08:12:40;9.30;;;5.32;;
32186;SDS011;18686;53.084;8.872;2023-03-19T08:15:09;8.13;;;5.63;;
32186;SDS011;18686;53.084;8.872;2023-03-19T08:17:38;8.50;;;6.05;;
32186;SDS011;18686;53.084;8.872;2023-03-19T08:20:07;5.57;;;4.90;;
32186;SDS011;18686;53.084;8.872;2023-03-19T08:22:37;9.93;;;5.68;;
32186;SDS011;18686;53.084;8.872;2023-03-19T08:25:09;8.55;;;5.85;;
32186;SDS011;18686;53.084;8.872;2023-03-19T08:27:37;6.47;;;5.10;;
32186;SDS011;18686;53.084;8.872;2023-03-19T08:30:06;9.15;;;6.03;;
32186;SDS011;18686;53.084;8.872;2023-03-19T08:32:36;8.95;;;5.35;;
32186;SDS011;18686;53.084;8.872;2023-03-19T08:35:05;7.63;;;5.30;;
32186;SDS011;18686;53.084;8.872;2023-03-19T08:37:34;8.77;;;4.78;;
32186;SDS011;18686;53.084;8.872;2023-03-19T08:40:02;7.45;;;5.07;;
32186;SDS011;18686;53.084;8.872;2023-03-19T08:42:32;8.30;;;5.18;;
32186;SDS011;18686;53.084;8.872;2023-03-19T08:45:01;8.75;;;4.85;;
32186;SDS011;18686;53.084;8.872;2023-03-19T08:47:29;5.57;;;4.75;;
32186;SDS011;18686;53.084;8.872;2023-03-19T08:49:57;7.38;;;4.47;;
32186;SDS011;18686;53.084;8.872;2023-03-19T08:52:26;7.95;;;4.55;;
32186;SDS011;18686;53.084;8.872;2023-03-19T08:54:54;7.88;;;4.57;;
32186;SDS011;18686;53.084;8.872;2023-03-19T08:57:22;6.35;;;4.53;;
32186;SDS011;18686;53.084;8.872;2023-03-19T08:59:52;6.15;;;4.25;;
32186;SDS011;18686;53.084;8.872;2023-03-19T09:02:20;7.68;;;4.50;;
32186;SDS011;18686;53.084;8.872;2023-03-19T09:04:49;6.60;;;4.47;;
32186;SDS011;18686;53.084;8.872;2023-03-19T09:07:17;6.82;;;5.05;;
32186;SDS011;18686;53.084;8.872;2023-03-19T09:09:46;8.73;;;4.22;;
32186;SDS011;18686;53.084;8.872;2023-03-19T09:12:15;8.13;;;3.97;;
32186;SDS011;18686;53.084;8.872;2023-03-19T09:14:44;5.25;;;4.18;;
32186;SDS011;18686;53.084;8.872;2023-03-19T09:17:14;6.63;;;4.60;;
32186;SDS011;18686;53.084;8.872;2023-03-19T09:19:43;6.80;;;4.63;;
32186;SDS011;18686;53.084;8.872;2023-03-19T09:22:12;6.22;;;3.88;;
32186;SDS011;18686;53.084;8.872;2023-03-19T09:24:40;9.48;;;4.95;;
32186;SDS011;18686;53.084;8.872;2023-03-19T09:27:08;7.53;;;3.67;;
32186;SDS011;18686;53.084;8.872;2023-03-19T09:29:36;6.40;;;3.55;;
32186;SDS011;18686;53.084;8.872;2023-03-19T09:32:05;6.50;;;3.75;;
32186;SDS011;18686;53.084;8.872;2023-03-19T09:34:34;5.60;;;3.67;;
32186;SDS011;18686;53.084;8.872;2023-03-19T09:37:03;6.22;;;3.78;;
32186;SDS011;18686;53.084;8.872;2023-03-19T09:39:31;8.77;;;3.17;;
32186;SDS011;18686;53.084;8.872;2023-03-19T09:42:02;6.47;;;3.30;;
32186;SDS011;18686;53.084;8.872;2023-03-19T09:44:42;7.70;;;3.90;;
32186;SDS011;18686;53.084;8.872;2023-03-19T09:47:18;5.05;;;3.00;;
32186;SDS011;18686;53.084;8.872;2023-03-19T09:49:54;4.97;;;3.58;;
32186;SDS011;18686;53.084;8.872;2023-03-19T09:52:29;4.97;;;3.60;;
32186;SDS011;18686;53.084;8.872;2023-03-19T09:55:04;5.60;;;3.10;;
32186;SDS011;18686;53.084;8.872;2023-03-19T09:57:39;5.03;;;3.10;;
32186;SDS011;18686;53.084;8.872;2023-03-19T10:00:11;6.88;;;3.13;;
32186;SDS011;18686;53.084;8.872;2023-03-19T10:02:50;5.47;;;3.90;;
32186;SDS011;18686;53.084;8.872;2023-03-19T10:05:26;5.80;;;3.42;;
32186;SDS011;18686;53.084;8.872;2023-03-19T10:11:02;4.95;;;3.53;;
32186;SDS011;18686;53.084;8.872;2023-03-19T10:13:46;5.13;;;3.35;;
32186;SDS011;18686;53.084;8.872;2023-03-19T10:16:25;3.40;;;2.72;;
32186;SDS011;18686;53.084;8.872;2023-03-19T10:18:56;5.07;;;3.20;;
32186;SDS011;18686;53.084;8.872;2023-03-19T10:21:29;4.60;;;2.80;;
32186;SDS011;18686;53.084;8.872;2023-03-19T10:24:58;4.90;;;3.30;;
32186;SDS011;18686;53.084;8.872;2023-03-19T10:27:28;4.07;;;2.65;;
32186;SDS011;18686;53.084;8.872;2023-03-19T10:29:56;5.07;;;3.25;;
32186;SDS011;18686;53.084;8.872;2023-03-19T10:32:26;5.18;;;2.63;;
32186;SDS011;18686;53.084;8.872;2023-03-19T10:35:02;6.15;;;2.70;;
32186;SDS011;18686;53.084;8.872;2023-03-19T10:37:36;3.67;;;2.97;;
32186;SDS011;18686;53.084;8.872;2023-03-19T10:40:05;8.02;;;3.22;;
32186;SDS011;18686;53.084;8.872;2023-03-19T10:42:50;5.15;;;2.80;;
32186;SDS011;18686;53.084;8.872;2023-03-19T10:45:29;4.72;;;2.53;;
32186;SDS011;18686;53.084;8.872;2023-03-19T10:48:00;5.80;;;2.78;;
32186;SDS011;18686;53.084;8.872;2023-03-19T10:50:30;6.03;;;2.88;;
32186;SDS011;18686;53.084;8.872;2023-03-19T10:53:05;4.05;;;2.30;;
32186;SDS011;18686;53.084;8.872;2023-03-19T10:55:47;6.55;;;2.95;;
32186;SDS011;18686;53.084;8.872;2023-03-19T10:58:21;4.90;;;2.95;;
32186;SDS011;18686;53.084;8.872;2023-03-19T11:00:55;4.68;;;2.60;;
32186;SDS011;18686;53.084;8.872;2023-03-19T11:03:28;6.32;;;2.80;;
32186;SDS011;18686;53.084;8.872;2023-03-19T11:06:05;4.15;;;2.70;;
32186;SDS011;18686;53.084;8.872;2023-03-19T11:08:49;4.57;;;2.72;;
32186;SDS011;18686;53.084;8.872;2023-03-19T11:11:22;5.45;;;3.03;;
32186;SDS011;18686;53.084;8.872;2023-03-19T11:13:52;5.93;;;2.90;;
32186;SDS011;18686;53.084;8.872;2023-03-19T11:16:20;6.05;;;3.00;;
32186;SDS011;18686;53.084;8.872;2023-03-19T11:18:49;4.55;;;2.85;;
32186;SDS011;18686;53.084;8.872;2023-03-19T11:21:21;6.90;;;3.47;;
32186;SDS011;18686;53.084;8.872;2023-03-19T11:23:57;5.80;;;3.35;;
32186;SDS011;18686;53.084;8.872;2023-03-19T11:26:28;7.70;;;3.30;;
32186;SDS011;18686;53.084;8.872;2023-03-19T11:29:00;7.88;;;3.33;;
32186;SDS011;18686;53.084;8.872;2023-03-19T11:31:32;8.77;;;4.03;;
32186;SDS011;18686;53.084;8.872;2023-03-19T11:34:07;6.00;;;3.55;;
32186;SDS011;18686;53.084;8.872;2023-03-19T11:36:48;8.02;;;3.50;;
32186;SDS011;18686;53.084;8.872;2023-03-19T11:39:26;4.30;;;3.08;;
32186;SDS011;18686;53.084;8.872;2023-03-19T11:42:10;5.80;;;3.13;;
32186;SDS011;18686;53.084;8.872;2023-03-19T11:45:02;5.97;;;3.58;;
32186;SDS011;18686;53.084;8.872;2023-03-19T11:47:38;8.57;;;3.50;;
32186;SDS011;18686;53.084;8.872;2023-03-19T11:50:17;7.05;;;4.10;;
32186;SDS011;18686;53.084;8.872;2023-03-19T11:53:02;9.20;;;4.03;;
32186;SDS011;18686;53.084;8.872;2023-03-19T11:55:40;10.00;;;3.67;;
32186;SDS011;18686;53.084;8.872;2023-03-19T12:01:13;6.22;;;3.95;;
32186;SDS011;18686;53.084;8.872;2023-03-19T12:07:05;5.72;;;3.40;;
32186;SDS011;18686;53.084;8.872;2023-03-19T12:09:44;5.20;;;3.60;;
32186;SDS011;18686;53.084;8.872;2023-03-19T12:12:20;8.00;;;4.03;;
32186;SDS011;18686;53.084;8.872;2023-03-19T12:14:57;5.18;;;3.78;;
32186;SDS011;18686;53.084;8.872;2023-03-19T12:20:27;5.55;;;3.83;;
32186;SDS011;18686;53.084;8.872;2023-03-19T12:23:11;8.70;;;4.00;;
32186;SDS011;18686;53.084;8.872;2023-03-19T12:25:51;10.02;;;4.30;;
32186;SDS011;18686;53.084;8.872;2023-03-19T12:28:32;14.05;;;8.43;;
32186;SDS011;18686;53.084;8.872;2023-03-19T12:31:14;9.90;;;7.72;;
32186;SDS011;18686;53.084;8.872;2023-03-19T12:34:08;13.02;;;8.32;;
32186;SDS011;18686;53.084;8.872;2023-03-19T12:36:48;12.77;;;10.15;;
32186;SDS011;18686;53.084;8.872;2023-03-19T12:39:21;12.13;;;10.35;;
32186;SDS011;18686;53.084;8.872;2023-03-19T12:41:54;14.07;;;11.50;;
32186;SDS011;18686;53.084;8.872;2023-03-19T12:44:27;12.13;;;10.52;;
32186;SDS011;18686;53.084;8.872;2023-03-19T12:47:00;11.63;;;10.38;;
32186;SDS011;18686;53.084;8.872;2023-03-19T12:49:32;10.90;;;9.80;;
32186;SDS011;18686;53.084;8.872;2023-03-19T12:52:07;10.77;;;9.60;;
32186;SDS011;18686;53.084;8.872;2023-03-19T12:54:43;11.70;;;10.35;;
32186;SDS011;18686;53.084;8.872;2023-03-19T12:57:16;11.02;;;9.93;;
32186;SDS011;18686;53.084;8.872;2023-03-19T12:59:52;12.00;;;8.07;;
32186;SDS011;18686;53.084;8.872;2023-03-19T13:02:28;5.47;;;4.55;;
32186;SDS011;18686;53.084;8.872;2023-03-19T13:05:03;5.05;;;4.55;;
32186;SDS011;18686;53.084;8.872;2023-03-19T13:07:39;4.20;;;3.67;;
32186;SDS011;18686;53.084;8.872;2023-03-19T13:10:16;6.05;;;5.30;;
32186;SDS011;18686;53.084;8.872;2023-03-19T13:12:47;7.75;;;6.97;;
32186;SDS011;18686;53.084;8.872;2023-03-19T13:15:20;8.07;;;7.28;;
32186;SDS011;18686;53.084;8.872;2023-03-19T13:17:56;8.05;;;6.20;;
32186;SDS011;18686;53.084;8.872;2023-03-19T13:20:36;8.48;;;7.55;;
32186;SDS011;18686;53.084;8.872;2023-03-19T13:23:18;7.72;;;6.90;;
32186;SDS011;18686;53.084;8.872;2023-03-19T13:25:50;8.27;;;7.03;;
32186;SDS011;18686;53.084;8.872;2023-03-19T13:28:25;6.88;;;6.13;;
32186;SDS011;18686;53.084;8.872;2023-03-19T13:31:00;7.55;;;6.28;;
32186;SDS011;18686;53.084;8.872;2023-03-19T13:33:32;6.47;;;5.65;;
32186;SDS011;18686;53.084;8.872;2023-03-19T13:36:03;7.38;;;6.40;;
32186;SDS011;18686;53.084;8.872;2023-03-19T13:38:37;8.48;;;6.97;;
32186;SDS011;18686;53.084;8.872;2023-03-19T13:44:17;7.18;;;5.90;;
32186;SDS011;18686;53.084;8.872;2023-03-19T13:47:26;4.82;;;4.05;;
32186;SDS011;18686;53.084;8.872;2023-03-19T13:50:23;5.05;;;3.45;;
32186;SDS011;18686;53.084;8.872;2023-03-19T13:53:19;3.13;;;2.83;;
32186;SDS011;18686;53.084;8.872;2023-03-19T13:56:15;3.42;;;2.80;;
32186;SDS011;18686;53.084;8.872;2023-03-19T14:01:49;4.97;;;3.50;;
32186;SDS011;18686;53.084;8.872;2023-03-19T14:04:20;3.88;;;2.95;;
32186;SDS011;18686;53.084;8.872;2023-03-19T14:06:52;4.53;;;4.10;;
32186;SDS011;18686;53.084;8.872;2023-03-19T14:12:24;4.28;;;3.88;;
32186;SDS011;18686;53.084;8.872;2023-03-19T14:14:58;5.53;;;4.50;;
32186;SDS011;18686;53.084;8.872;2023-03-19T14:17:31;5.38;;;4.18;;
32186;SDS011;18686;53.084;8.872;2023-03-19T14:20:04;4.75;;;4.15;;
32186;SDS011;18686;53.084;8.872;2023-03-19T14:23:02;5.43;;;4.93;;
32186;SDS011;18686;53.084;8.872;2023-03-19T14:26:05;5.65;;;5.05;;
32186;SDS011;18686;53.084;8.872;2023-03-19T14:28:45;4.68;;;4.20;;
32186;SDS011;18686;53.084;8.872;2023-03-19T14:31:35;5.97;;;4.45;;
32186;SDS011;18686;53.084;8.872;2023-03-19T14:34:19;5.50;;;4.10;;
32186;SDS011;18686;53.084;8.872;2023-03-19T14:36:54;7.03;;;4.68;;
32186;SDS011;18686;53.084;8.872;2023-03-19T14:39:27;4.95;;;4.32;;
32186;SDS011;18686;53.084;8.872;2023-03-19T14:42:03;6.85;;;4.30;;
32186;SDS011;18686;53.084;8.872;2023-03-19T14:44:59;5.70;;;4.82;;
32186;SDS011;18686;53.084;8.872;2023-03-19T14:47:49;5.18;;;4.68;;
32186;SDS011;18686;53.084;8.872;2023-03-19T14:50:55;6.28;;;5.10;;
32186;SDS011;18686;53.084;8.872;2023-03-19T14:53:36;5.95;;;4.80;;
32186;SDS011;18686;53.084;8.872;2023-03-19T14:56:12;4.87;;;3.80;;
32186;SDS011;18686;53.084;8.872;2023-03-19T15:01:16;5.97;;;4.45;;
32186;SDS011;18686;53.084;8.872;2023-03-19T15:03:50;4.13;;;3.72;;
32186;SDS011;18686;53.084;8.872;2023-03-19T15:06:20;4.63;;;4.20;;
32186;SDS011;18686;53.084;8.872;2023-03-19T15:08:50;5.28;;;4.30;;
32186;SDS011;18686;53.084;8.872;2023-03-19T15:11:32;4.32;;;3.70;;
32186;SDS011;18686;53.084;8.872;2023-03-19T15:14:17;4.45;;;3.90;;
32186;SDS011;18686;53.084;8.872;2023-03-19T15:16:57;4.38;;;3.92;;
32186;SDS011;18686;53.084;8.872;2023-03-19T15:19:32;5.63;;;4.40;;
32186;SDS011;18686;53.084;8.872;2023-03-19T15:22:02;4.70;;;4.30;;
32186;SDS011;18686;53.084;8.872;2023-03-19T15:24:33;5.60;;;5.07;;
32186;SDS011;18686;53.084;8.872;2023-03-19T15:27:01;5.75;;;5.15;;
32186;SDS011;18686;53.084;8.872;2023-03-19T15:29:45;5.30;;;4.10;;
32186;SDS011;18686;53.084;8.872;2023-03-19T15:32:32;3.80;;;3.50;;
32186;SDS011;18686;53.084;8.872;2023-03-19T15:35:24;4.82;;;4.00;;
32186;SDS011;18686;53.084;8.872;2023-03-19T15:37:56;4.40;;;4.00;;